sensor_id;sensor_type;location;lat;lon;timestamp;pressure;altitude;pressure_sealevel;temperature
20058;BMP180;10189;49.546;7.906;2024-02-21T00:00:56;99088.00;;;9.60
20058;BMP180;10189;49.546;7.906;2024-02-21T00:03:22;99070.00;;;9.60
20058;BMP180;10189;49.546;7.906;2024-02-21T00:05:48;99066.00;;;9.50
20058;BMP180;10189;49.546;7.906;2024-02-21T00:08:14;99059.00;;;9.40
20058;BMP180;10189;49.546;7.906;2024-02-21T00:10:40;99051.00;;;9.40
20058;BMP180;10189;49.546;7.906;2024-02-21T00:13:06;99063.00;;;9.40
20058;BMP180;10189;49.546;7.906;2024-02-21T00:15:32;99063.00;;;9.60
20058;BMP180;10189;49.546;7.906;2024-02-21T00:17:57;99066.00;;;9.50
20058;BMP180;10189;49.546;7.906;2024-02-21T00:20:23;99073.00;;;9.50
20058;BMP180;10189;49.546;7.906;2024-02-21T00:22:51;99057.00;;;9.60
20058;BMP180;10189;49.546;7.906;2024-02-21T00:25:17;99044.00;;;9.60
20058;BMP180;10189;49.546;7.906;2024-02-21T00:27:43;99049.00;;;9.60
20058;BMP180;10189;49.546;7.906;2024-02-21T00:30:10;99027.00;;;9.60
20058;BMP180;10189;49.546;7.906;2024-02-21T00:32:36;99021.00;;;9.70
20058;BMP180;10189;49.546;7.906;2024-02-21T00:35:02;99021.00;;;9.80
20058;BMP180;10189;49.546;7.906;2024-02-21T00:37:28;99014.00;;;9.70
20058;BMP180;10189;49.546;7.906;2024-02-21T00:39:54;99021.00;;;9.70
20058;BMP180;10189;49.546;7.906;2024-02-21T00:42:20;99014.00;;;9.70
20058;BMP180;10189;49.546;7.906;2024-02-21T00:44:47;99001.00;;;9.80
20058;BMP180;10189;49.546;7.906;2024-02-21T00:47:13;99001.00;;;9.80
20058;BMP180;10189;49.546;7.906;2024-02-21T00:49:39;98996.00;;;9.80
20058;BMP180;10189;49.546;7.906;2024-02-21T00:52:04;98993.00;;;9.70
20058;BMP180;10189;49.546;7.906;2024-02-21T00:54:30;98993.00;;;9.80
20058;BMP180;10189;49.546;7.906;2024-02-21T00:56:56;98994.00;;;9.80
20058;BMP180;10189;49.546;7.906;2024-02-21T00:59:22;98996.00;;;9.70
20058;BMP180;10189;49.546;7.906;2024-02-21T01:01:48;98997.00;;;9.80
20058;BMP180;10189;49.546;7.906;2024-02-21T01:04:14;98990.00;;;9.80
20058;BMP180;10189;49.546;7.906;2024-02-21T01:06:40;98990.00;;;9.70
20058;BMP180;10189;49.546;7.906;2024-02-21T01:09:08;98986.00;;;9.70
20058;BMP180;10189;49.546;7.906;2024-02-21T01:11:34;98991.00;;;9.60
20058;BMP180;10189;49.546;7.906;2024-02-21T01:14:00;98993.00;;;9.70
20058;BMP180;10189;49.546;7.906;2024-02-21T01:16:26;98986.00;;;9.70
20058;BMP180;10189;49.546;7.906;2024-02-21T01:18:52;98998.00;;;9.70
20058;BMP180;10189;49.546;7.906;2024-02-21T01:21:18;98989.00;;;9.70
20058;BMP180;10189;49.546;7.906;2024-02-21T01:23:44;98989.00;;;9.60
20058;BMP180;10189;49.546;7.906;2024-02-21T01:26:10;98995.00;;;9.60
20058;BMP180;10189;49.546;7.906;2024-02-21T01:28:39;98987.00;;;9.60
20058;BMP180;10189;49.546;7.906;2024-02-21T01:31:05;98985.00;;;9.60
20058;BMP180;10189;49.546;7.906;2024-02-21T01:33:31;98972.00;;;9.50
20058;BMP180;10189;49.546;7.906;2024-02-21T01:36:04;98966.00;;;9.40
20058;BMP180;10189;49.546;7.906;2024-02-21T01:38:30;98968.00;;;9.40
20058;BMP180;10189;49.546;7.906;2024-02-21T01:40:57;98967.00;;;9.40
20058;BMP180;10189;49.546;7.906;2024-02-21T01:43:23;98978.00;;;9.30
20058;BMP180;10189;49.546;7.906;2024-02-21T01:45:53;98967.00;;;9.30
20058;BMP180;10189;49.546;7.906;2024-02-21T01:48:19;98962.00;;;9.40
20058;BMP180;10189;49.546;7.906;2024-02-21T01:50:46;98955.00;;;9.30
20058;BMP180;10189;49.546;7.906;2024-02-21T01:53:17;98948.00;;;9.40
20058;BMP180;10189;49.546;7.906;2024-02-21T01:55:48;98947.00;;;9.30
20058;BMP180;10189;49.546;7.906;2024-02-21T01:58:16;98929.00;;;9.30
20058;BMP180;10189;49.546;7.906;2024-02-21T02:00:43;98930.00;;;9.40
20058;BMP180;10189;49.546;7.906;2024-02-21T02:03:13;98940.00;;;9.50
20058;BMP180;10189;49.546;7.906;2024-02-21T02:05:49;98924.00;;;9.40
20058;BMP180;10189;49.546;7.906;2024-02-21T02:08:16;98923.00;;;9.30
20058;BMP180;10189;49.546;7.906;2024-02-21T02:10:43;98930.00;;;9.40
20058;BMP180;10189;49.546;7.906;2024-02-21T02:13:10;98917.00;;;9.40
20058;BMP180;10189;49.546;7.906;2024-02-21T02:15:46;98916.00;;;9.40
20058;BMP180;10189;49.546;7.906;2024-02-21T02:18:14;98906.00;;;9.40
20058;BMP180;10189;49.546;7.906;2024-02-21T02:20:41;98899.00;;;9.40
20058;BMP180;10189;49.546;7.906;2024-02-21T02:23:29;98892.00;;;9.40
20058;BMP180;10189;49.546;7.906;2024-02-21T02:25:55;98895.00;;;9.30
20058;BMP180;10189;49.546;7.906;2024-02-21T02:28:22;98884.00;;;9.30
20058;BMP180;10189;49.546;7.906;2024-02-21T02:30:49;98883.00;;;9.30
20058;BMP180;10189;49.546;7.906;2024-02-21T02:33:15;98881.00;;;9.20
20058;BMP180;10189;49.546;7.906;2024-02-21T02:35:43;98890.00;;;9.20
20058;BMP180;10189;49.546;7.906;2024-02-21T02:38:09;98879.00;;;9.30
20058;BMP180;10189;49.546;7.906;2024-02-21T02:40:39;98864.00;;;9.30
20058;BMP180;10189;49.546;7.906;2024-02-21T02:43:06;98869.00;;;9.20
20058;BMP180;10189;49.546;7.906;2024-02-21T02:45:32;98866.00;;;9.30
20058;BMP180;10189;49.546;7.906;2024-02-21T02:47:59;98878.00;;;9.10
20058;BMP180;10189;49.546;7.906;2024-02-21T02:50:27;98866.00;;;9.00
20058;BMP180;10189;49.546;7.906;2024-02-21T02:52:55;98869.00;;;9.00
20058;BMP180;10189;49.546;7.906;2024-02-21T02:55:22;98861.00;;;8.90
20058;BMP180;10189;49.546;7.906;2024-02-21T02:57:48;98859.00;;;8.90
20058;BMP180;10189;49.546;7.906;2024-02-21T03:00:14;98861.00;;;8.80
20058;BMP180;10189;49.546;7.906;2024-02-21T03:02:45;98853.00;;;8.60
20058;BMP180;10189;49.546;7.906;2024-02-21T03:05:20;98858.00;;;8.60
20058;BMP180;10189;49.546;7.906;2024-02-21T03:07:47;98856.00;;;8.70
20058;BMP180;10189;49.546;7.906;2024-02-21T03:10:14;98854.00;;;8.70
20058;BMP180;10189;49.546;7.906;2024-02-21T03:12:42;98841.00;;;8.60
20058;BMP180;10189;49.546;7.906;2024-02-21T03:15:09;98847.00;;;8.70
20058;BMP180;10189;49.546;7.906;2024-02-21T03:17:35;98844.00;;;8.80
20058;BMP180;10189;49.546;7.906;2024-02-21T03:20:02;98847.00;;;8.90
20058;BMP180;10189;49.546;7.906;2024-02-21T03:22:31;98842.00;;;8.90
20058;BMP180;10189;49.546;7.906;2024-02-21T03:24:58;98832.00;;;8.90
20058;BMP180;10189;49.546;7.906;2024-02-21T03:27:24;98819.00;;;8.90
20058;BMP180;10189;49.546;7.906;2024-02-21T03:29:50;98826.00;;;8.90
20058;BMP180;10189;49.546;7.906;2024-02-21T03:32:15;98826.00;;;9.10
20058;BMP180;10189;49.546;7.906;2024-02-21T03:34:41;98822.00;;;9.00
20058;BMP180;10189;49.546;7.906;2024-02-21T03:37:07;98814.00;;;9.10
20058;BMP180;10189;49.546;7.906;2024-02-21T03:39:33;98818.00;;;9.10
20058;BMP180;10189;49.546;7.906;2024-02-21T03:41:59;98819.00;;;9.10
20058;BMP180;10189;49.546;7.906;2024-02-21T03:44:30;98834.00;;;9.20
20058;BMP180;10189;49.546;7.906;2024-02-21T03:46:58;98827.00;;;9.20
20058;BMP180;10189;49.546;7.906;2024-02-21T03:49:24;98839.00;;;9.20
20058;BMP180;10189;49.546;7.906;2024-02-21T03:51:50;98832.00;;;9.30
20058;BMP180;10189;49.546;7.906;2024-02-21T03:54:15;98832.00;;;9.30
20058;BMP180;10189;49.546;7.906;2024-02-21T03:56:41;98824.00;;;9.30
20058;BMP180;10189;49.546;7.906;2024-02-21T03:59:08;98822.00;;;9.30
20058;BMP180;10189;49.546;7.906;2024-02-21T04:01:37;98814.00;;;9.40
20058;BMP180;10189;49.546;7.906;2024-02-21T04:04:03;98827.00;;;9.30
20058;BMP180;10189;49.546;7.906;2024-02-21T04:06:29;98822.00;;;9.30
20058;BMP180;10189;49.546;7.906;2024-02-21T04:08:54;98806.00;;;9.40
20058;BMP180;10189;49.546;7.906;2024-02-21T04:11:21;98803.00;;;9.40
20058;BMP180;10189;49.546;7.906;2024-02-21T04:13:47;98787.00;;;9.50
20058;BMP180;10189;49.546;7.906;2024-02-21T04:16:16;98797.00;;;9.40
20058;BMP180;10189;49.546;7.906;2024-02-21T04:18:43;98810.00;;;9.40
20058;BMP180;10189;49.546;7.906;2024-02-21T04:21:09;98809.00;;;9.50
20058;BMP180;10189;49.546;7.906;2024-02-21T04:23:35;98808.00;;;9.40
20058;BMP180;10189;49.546;7.906;2024-02-21T04:26:01;98785.00;;;9.40
20058;BMP180;10189;49.546;7.906;2024-02-21T04:28:27;98797.00;;;9.40
20058;BMP180;10189;49.546;7.906;2024-02-21T04:30:53;98795.00;;;9.40
20058;BMP180;10189;49.546;7.906;2024-02-21T04:33:19;98776.00;;;9.40
20058;BMP180;10189;49.546;7.906;2024-02-21T04:35:45;98765.00;;;9.40
20058;BMP180;10189;49.546;7.906;2024-02-21T04:38:11;98760.00;;;9.50
20058;BMP180;10189;49.546;7.906;2024-02-21T04:40:37;98761.00;;;9.50
20058;BMP180;10189;49.546;7.906;2024-02-21T04:43:03;98751.00;;;9.50
20058;BMP180;10189;49.546;7.906;2024-02-21T04:45:29;98749.00;;;9.40
20058;BMP180;10189;49.546;7.906;2024-02-21T04:47:55;98760.00;;;9.40
20058;BMP180;10189;49.546;7.906;2024-02-21T04:50:20;98756.00;;;9.50
20058;BMP180;10189;49.546;7.906;2024-02-21T04:52:46;98751.00;;;9.40
20058;BMP180;10189;49.546;7.906;2024-02-21T04:55:13;98740.00;;;9.40
20058;BMP180;10189;49.546;7.906;2024-02-21T04:57:38;98738.00;;;9.40
20058;BMP180;10189;49.546;7.906;2024-02-21T05:00:06;98729.00;;;9.40
20058;BMP180;10189;49.546;7.906;2024-02-21T05:02:32;98735.00;;;9.40
20058;BMP180;10189;49.546;7.906;2024-02-21T05:04:58;98739.00;;;9.30
20058;BMP180;10189;49.546;7.906;2024-02-21T05:07:24;98743.00;;;9.40
20058;BMP180;10189;49.546;7.906;2024-02-21T05:09:50;98738.00;;;9.40
20058;BMP180;10189;49.546;7.906;2024-02-21T05:12:16;98733.00;;;9.50
20058;BMP180;10189;49.546;7.906;2024-02-21T05:14:41;98733.00;;;9.50
20058;BMP180;10189;49.546;7.906;2024-02-21T05:17:07;98733.00;;;9.30
20058;BMP180;10189;49.546;7.906;2024-02-21T05:19:33;98722.00;;;9.30
20058;BMP180;10189;49.546;7.906;2024-02-21T05:21:59;98701.00;;;9.30
20058;BMP180;10189;49.546;7.906;2024-02-21T05:24:25;98705.00;;;9.20
20058;BMP180;10189;49.546;7.906;2024-02-21T05:26:53;98704.00;;;9.20
20058;BMP180;10189;49.546;7.906;2024-02-21T05:29:19;98708.00;;;9.10
20058;BMP180;10189;49.546;7.906;2024-02-21T05:34:20;98710.00;;;9.00
20058;BMP180;10189;49.546;7.906;2024-02-21T05:36:46;98724.00;;;9.00
20058;BMP180;10189;49.546;7.906;2024-02-21T05:39:13;98726.00;;;9.00
20058;BMP180;10189;49.546;7.906;2024-02-21T05:41:40;98730.00;;;9.00
20058;BMP180;10189;49.546;7.906;2024-02-21T05:44:06;98728.00;;;9.00
20058;BMP180;10189;49.546;7.906;2024-02-21T05:46:32;98721.00;;;9.10
20058;BMP180;10189;49.546;7.906;2024-02-21T05:48:58;98738.00;;;9.00
20058;BMP180;10189;49.546;7.906;2024-02-21T05:51:23;98727.00;;;9.00
20058;BMP180;10189;49.546;7.906;2024-02-21T05:53:49;98725.00;;;9.00
20058;BMP180;10189;49.546;7.906;2024-02-21T05:56:15;98723.00;;;9.00
20058;BMP180;10189;49.546;7.906;2024-02-21T05:58:44;98727.00;;;8.90
20058;BMP180;10189;49.546;7.906;2024-02-21T06:01:11;98738.00;;;8.90
20058;BMP180;10189;49.546;7.906;2024-02-21T06:03:37;98727.00;;;9.00
20058;BMP180;10189;49.546;7.906;2024-02-21T06:06:03;98729.00;;;8.90
20058;BMP180;10189;49.546;7.906;2024-02-21T06:08:31;98719.00;;;9.00
20058;BMP180;10189;49.546;7.906;2024-02-21T06:10:57;98722.00;;;9.00
20058;BMP180;10189;49.546;7.906;2024-02-21T06:13:24;98713.00;;;9.00
20058;BMP180;10189;49.546;7.906;2024-02-21T06:15:50;98717.00;;;9.00
20058;BMP180;10189;49.546;7.906;2024-02-21T06:18:20;98707.00;;;9.00
20058;BMP180;10189;49.546;7.906;2024-02-21T06:20:47;98703.00;;;9.00
20058;BMP180;10189;49.546;7.906;2024-02-21T06:23:15;98700.00;;;9.00
20058;BMP180;10189;49.546;7.906;2024-02-21T06:25:42;98713.00;;;8.90
20058;BMP180;10189;49.546;7.906;2024-02-21T06:28:08;98703.00;;;8.90
20058;BMP180;10189;49.546;7.906;2024-02-21T06:30:35;98697.00;;;8.90
20058;BMP180;10189;49.546;7.906;2024-02-21T06:33:02;98700.00;;;8.80
20058;BMP180;10189;49.546;7.906;2024-02-21T06:35:28;98688.00;;;8.80
20058;BMP180;10189;49.546;7.906;2024-02-21T06:37:54;98693.00;;;8.80
20058;BMP180;10189;49.546;7.906;2024-02-21T06:40:22;98695.00;;;8.80
20058;BMP180;10189;49.546;7.906;2024-02-21T06:42:49;98699.00;;;8.90
20058;BMP180;10189;49.546;7.906;2024-02-21T06:45:16;98693.00;;;8.90
20058;BMP180;10189;49.546;7.906;2024-02-21T06:47:43;98702.00;;;8.90
20058;BMP180;10189;49.546;7.906;2024-02-21T06:50:09;98700.00;;;9.00
20058;BMP180;10189;49.546;7.906;2024-02-21T06:52:36;98685.00;;;9.00
20058;BMP180;10189;49.546;7.906;2024-02-21T06:55:02;98680.00;;;9.00
20058;BMP180;10189;49.546;7.906;2024-02-21T06:57:29;98683.00;;;9.00
20058;BMP180;10189;49.546;7.906;2024-02-21T06:59:55;98684.00;;;9.00
20058;BMP180;10189;49.546;7.906;2024-02-21T07:02:21;98682.00;;;9.10
20058;BMP180;10189;49.546;7.906;2024-02-21T07:04:47;98686.00;;;9.00
20058;BMP180;10189;49.546;7.906;2024-02-21T07:07:13;98666.00;;;9.10
20058;BMP180;10189;49.546;7.906;2024-02-21T07:09:39;98679.00;;;9.20
20058;BMP180;10189;49.546;7.906;2024-02-21T07:12:05;98675.00;;;9.30
20058;BMP180;10189;49.546;7.906;2024-02-21T07:14:35;98673.00;;;9.30
20058;BMP180;10189;49.546;7.906;2024-02-21T07:17:01;98680.00;;;9.40
20058;BMP180;10189;49.546;7.906;2024-02-21T07:19:27;98663.00;;;9.60
20058;BMP180;10189;49.546;7.906;2024-02-21T07:21:53;98678.00;;;9.40
20058;BMP180;10189;49.546;7.906;2024-02-21T07:24:19;98673.00;;;9.60
20058;BMP180;10189;49.546;7.906;2024-02-21T07:26:45;98682.00;;;9.50
20058;BMP180;10189;49.546;7.906;2024-02-21T07:29:11;98679.00;;;9.60
20058;BMP180;10189;49.546;7.906;2024-02-21T07:31:43;98667.00;;;9.60
20058;BMP180;10189;49.546;7.906;2024-02-21T07:34:10;98671.00;;;9.60
20058;BMP180;10189;49.546;7.906;2024-02-21T07:36:36;98667.00;;;9.50
20058;BMP180;10189;49.546;7.906;2024-02-21T07:39:05;98673.00;;;9.60
20058;BMP180;10189;49.546;7.906;2024-02-21T07:41:31;98662.00;;;9.60
20058;BMP180;10189;49.546;7.906;2024-02-21T07:43:59;98668.00;;;9.60
20058;BMP180;10189;49.546;7.906;2024-02-21T07:46:25;98657.00;;;9.70
20058;BMP180;10189;49.546;7.906;2024-02-21T07:48:51;98650.00;;;9.70
20058;BMP180;10189;49.546;7.906;2024-02-21T07:51:17;98656.00;;;9.60
20058;BMP180;10189;49.546;7.906;2024-02-21T07:53:44;98646.00;;;9.60
20058;BMP180;10189;49.546;7.906;2024-02-21T07:56:12;98646.00;;;9.60
20058;BMP180;10189;49.546;7.906;2024-02-21T07:58:38;98656.00;;;9.60
20058;BMP180;10189;49.546;7.906;2024-02-21T08:01:04;98640.00;;;9.80
20058;BMP180;10189;49.546;7.906;2024-02-21T08:03:30;98641.00;;;9.80
20058;BMP180;10189;49.546;7.906;2024-02-21T08:05:56;98652.00;;;9.70
20058;BMP180;10189;49.546;7.906;2024-02-21T08:08:21;98640.00;;;9.70
20058;BMP180;10189;49.546;7.906;2024-02-21T08:10:50;98640.00;;;9.90
20058;BMP180;10189;49.546;7.906;2024-02-21T08:13:16;98641.00;;;9.90
20058;BMP180;10189;49.546;7.906;2024-02-21T08:15:42;98638.00;;;9.80
20058;BMP180;10189;49.546;7.906;2024-02-21T08:18:08;98624.00;;;9.80
20058;BMP180;10189;49.546;7.906;2024-02-21T08:20:35;98625.00;;;10.00
20058;BMP180;10189;49.546;7.906;2024-02-21T08:23:01;98621.00;;;10.10
20058;BMP180;10189;49.546;7.906;2024-02-21T08:25:27;98623.00;;;10.20
20058;BMP180;10189;49.546;7.906;2024-02-21T08:27:59;98609.00;;;10.20
20058;BMP180;10189;49.546;7.906;2024-02-21T08:30:25;98605.00;;;10.10
20058;BMP180;10189;49.546;7.906;2024-02-21T08:32:51;98609.00;;;10.20
20058;BMP180;10189;49.546;7.906;2024-02-21T08:35:17;98605.00;;;10.30
20058;BMP180;10189;49.546;7.906;2024-02-21T08:37:48;98602.00;;;10.30
20058;BMP180;10189;49.546;7.906;2024-02-21T08:40:14;98601.00;;;10.30
20058;BMP180;10189;49.546;7.906;2024-02-21T08:42:43;98606.00;;;10.30
20058;BMP180;10189;49.546;7.906;2024-02-21T08:45:10;98608.00;;;10.10
20058;BMP180;10189;49.546;7.906;2024-02-21T08:47:39;98600.00;;;10.30
20058;BMP180;10189;49.546;7.906;2024-02-21T08:50:06;98601.00;;;10.50
20058;BMP180;10189;49.546;7.906;2024-02-21T08:52:32;98600.00;;;10.50
20058;BMP180;10189;49.546;7.906;2024-02-21T08:54:58;98597.00;;;10.40
20058;BMP180;10189;49.546;7.906;2024-02-21T08:57:24;98582.00;;;10.50
20058;BMP180;10189;49.546;7.906;2024-02-21T08:59:50;98582.00;;;10.70
20058;BMP180;10189;49.546;7.906;2024-02-21T09:02:16;98577.00;;;10.80
20058;BMP180;10189;49.546;7.906;2024-02-21T09:04:42;98563.00;;;10.90
20058;BMP180;10189;49.546;7.906;2024-02-21T09:07:10;98552.00;;;11.00
20058;BMP180;10189;49.546;7.906;2024-02-21T09:09:36;98558.00;;;11.10
20058;BMP180;10189;49.546;7.906;2024-02-21T09:12:06;98556.00;;;11.30
20058;BMP180;10189;49.546;7.906;2024-02-21T09:14:37;98564.00;;;11.60
20058;BMP180;10189;49.546;7.906;2024-02-21T09:17:06;98559.00;;;11.50
20058;BMP180;10189;49.546;7.906;2024-02-21T09:19:33;98539.00;;;11.70
20058;BMP180;10189;49.546;7.906;2024-02-21T09:21:59;98554.00;;;11.70
20058;BMP180;10189;49.546;7.906;2024-02-21T09:24:25;98543.00;;;11.60
20058;BMP180;10189;49.546;7.906;2024-02-21T09:26:51;98552.00;;;11.40
20058;BMP180;10189;49.546;7.906;2024-02-21T09:29:16;98546.00;;;11.00
20058;BMP180;10189;49.546;7.906;2024-02-21T09:31:42;98548.00;;;11.20
20058;BMP180;10189;49.546;7.906;2024-02-21T09:34:08;98548.00;;;11.10
20058;BMP180;10189;49.546;7.906;2024-02-21T09:36:34;98541.00;;;11.00
20058;BMP180;10189;49.546;7.906;2024-02-21T09:39:00;98536.00;;;11.10
20058;BMP180;10189;49.546;7.906;2024-02-21T09:41:27;98525.00;;;11.40
20058;BMP180;10189;49.546;7.906;2024-02-21T09:43:54;98522.00;;;11.70
20058;BMP180;10189;49.546;7.906;2024-02-21T09:46:29;98514.00;;;11.70
20058;BMP180;10189;49.546;7.906;2024-02-21T09:49:31;98505.00;;;11.90
20058;BMP180;10189;49.546;7.906;2024-02-21T09:52:02;98495.00;;;11.80
20058;BMP180;10189;49.546;7.906;2024-02-21T09:54:29;98497.00;;;12.20
20058;BMP180;10189;49.546;7.906;2024-02-21T09:57:03;98490.00;;;12.10
20058;BMP180;10189;49.546;7.906;2024-02-21T09:59:32;98488.00;;;12.20
20058;BMP180;10189;49.546;7.906;2024-02-21T10:01:58;98486.00;;;12.60
20058;BMP180;10189;49.546;7.906;2024-02-21T10:04:29;98475.00;;;12.70
20058;BMP180;10189;49.546;7.906;2024-02-21T10:06:55;98477.00;;;12.80
20058;BMP180;10189;49.546;7.906;2024-02-21T10:09:28;98486.00;;;12.60
20058;BMP180;10189;49.546;7.906;2024-02-21T10:12:10;98486.00;;;12.60
20058;BMP180;10189;49.546;7.906;2024-02-21T10:14:37;98482.00;;;12.30
20058;BMP180;10189;49.546;7.906;2024-02-21T10:17:03;98481.00;;;12.20
20058;BMP180;10189;49.546;7.906;2024-02-21T10:19:35;98479.00;;;12.50
20058;BMP180;10189;49.546;7.906;2024-02-21T10:22:07;98481.00;;;12.50
20058;BMP180;10189;49.546;7.906;2024-02-21T10:24:34;98467.00;;;12.30
20058;BMP180;10189;49.546;7.906;2024-02-21T10:27:08;98462.00;;;12.20
20058;BMP180;10189;49.546;7.906;2024-02-21T10:29:35;98465.00;;;12.10
20058;BMP180;10189;49.546;7.906;2024-02-21T10:32:12;98465.00;;;12.10
20058;BMP180;10189;49.546;7.906;2024-02-21T10:34:40;98463.00;;;12.20
20058;BMP180;10189;49.546;7.906;2024-02-21T10:37:11;98456.00;;;12.40
20058;BMP180;10189;49.546;7.906;2024-02-21T10:39:40;98447.00;;;12.50
20058;BMP180;10189;49.546;7.906;2024-02-21T10:42:07;98443.00;;;12.40
20058;BMP180;10189;49.546;7.906;2024-02-21T10:44:39;98443.00;;;12.20
20058;BMP180;10189;49.546;7.906;2024-02-21T10:47:11;98442.00;;;12.00
20058;BMP180;10189;49.546;7.906;2024-02-21T10:49:44;98439.00;;;12.30
20058;BMP180;10189;49.546;7.906;2024-02-21T10:52:15;98436.00;;;12.30
20058;BMP180;10189;49.546;7.906;2024-02-21T10:54:55;98425.00;;;12.30
20058;BMP180;10189;49.546;7.906;2024-02-21T10:57:23;98416.00;;;12.50
20058;BMP180;10189;49.546;7.906;2024-02-21T10:59:51;98419.00;;;12.60
20058;BMP180;10189;49.546;7.906;2024-02-21T11:02:17;98411.00;;;13.10
20058;BMP180;10189;49.546;7.906;2024-02-21T11:04:44;98417.00;;;13.10
20058;BMP180;10189;49.546;7.906;2024-02-21T11:07:11;98421.00;;;12.90
20058;BMP180;10189;49.546;7.906;2024-02-21T11:09:36;98414.00;;;12.60
20058;BMP180;10189;49.546;7.906;2024-02-21T11:12:05;98421.00;;;13.00
20058;BMP180;10189;49.546;7.906;2024-02-21T11:14:33;98417.00;;;12.90
20058;BMP180;10189;49.546;7.906;2024-02-21T11:17:02;98409.00;;;12.50
20058;BMP180;10189;49.546;7.906;2024-02-21T11:19:29;98407.00;;;12.60
20058;BMP180;10189;49.546;7.906;2024-02-21T11:21:58;98392.00;;;12.50
20058;BMP180;10189;49.546;7.906;2024-02-21T11:24:32;98397.00;;;12.40
20058;BMP180;10189;49.546;7.906;2024-02-21T11:27:19;98388.00;;;12.30
20058;BMP180;10189;49.546;7.906;2024-02-21T11:29:57;98387.00;;;12.40
20058;BMP180;10189;49.546;7.906;2024-02-21T11:32:26;98395.00;;;12.40
20058;BMP180;10189;49.546;7.906;2024-02-21T11:35:01;98388.00;;;12.50
20058;BMP180;10189;49.546;7.906;2024-02-21T11:37:31;98387.00;;;12.80
20058;BMP180;10189;49.546;7.906;2024-02-21T11:39:59;98371.00;;;13.00
20058;BMP180;10189;49.546;7.906;2024-02-21T11:42:27;98362.00;;;13.30
20058;BMP180;10189;49.546;7.906;2024-02-21T11:44:53;98363.00;;;13.30
20058;BMP180;10189;49.546;7.906;2024-02-21T11:47:23;98348.00;;;13.50
20058;BMP180;10189;49.546;7.906;2024-02-21T11:49:49;98350.00;;;13.30
20058;BMP180;10189;49.546;7.906;2024-02-21T11:52:24;98332.00;;;13.60
20058;BMP180;10189;49.546;7.906;2024-02-21T11:54:54;98331.00;;;13.50
20058;BMP180;10189;49.546;7.906;2024-02-21T11:57:21;98325.00;;;13.60
20058;BMP180;10189;49.546;7.906;2024-02-21T11:59:47;98315.00;;;13.40
20058;BMP180;10189;49.546;7.906;2024-02-21T12:02:15;98320.00;;;13.20
20058;BMP180;10189;49.546;7.906;2024-02-21T12:04:43;98320.00;;;13.10
20058;BMP180;10189;49.546;7.906;2024-02-21T12:07:09;98315.00;;;13.00
20058;BMP180;10189;49.546;7.906;2024-02-21T12:09:35;98310.00;;;13.10
20058;BMP180;10189;49.546;7.906;2024-02-21T12:12:04;98305.00;;;12.90
20058;BMP180;10189;49.546;7.906;2024-02-21T12:14:32;98299.00;;;12.90
20058;BMP180;10189;49.546;7.906;2024-02-21T12:17:02;98293.00;;;12.80
20058;BMP180;10189;49.546;7.906;2024-02-21T12:19:34;98281.00;;;12.80
20058;BMP180;10189;49.546;7.906;2024-02-21T12:22:00;98281.00;;;12.80
20058;BMP180;10189;49.546;7.906;2024-02-21T12:24:28;98283.00;;;12.70
20058;BMP180;10189;49.546;7.906;2024-02-21T12:26:55;98268.00;;;12.80
20058;BMP180;10189;49.546;7.906;2024-02-21T12:29:23;98266.00;;;12.90
20058;BMP180;10189;49.546;7.906;2024-02-21T12:31:52;98250.00;;;13.10
20058;BMP180;10189;49.546;7.906;2024-02-21T12:34:20;98241.00;;;13.20
20058;BMP180;10189;49.546;7.906;2024-02-21T12:36:47;98248.00;;;13.40
20058;BMP180;10189;49.546;7.906;2024-02-21T12:39:13;98236.00;;;13.40
20058;BMP180;10189;49.546;7.906;2024-02-21T12:41:40;98224.00;;;13.20
20058;BMP180;10189;49.546;7.906;2024-02-21T12:44:07;98218.00;;;13.20
20058;BMP180;10189;49.546;7.906;2024-02-21T12:46:34;98210.00;;;13.10
20058;BMP180;10189;49.546;7.906;2024-02-21T12:49:04;98206.00;;;13.10
20058;BMP180;10189;49.546;7.906;2024-02-21T12:51:33;98199.00;;;13.00
20058;BMP180;10189;49.546;7.906;2024-02-21T12:54:00;98197.00;;;13.10
20058;BMP180;10189;49.546;7.906;2024-02-21T12:56:26;98184.00;;;13.00
20058;BMP180;10189;49.546;7.906;2024-02-21T12:59:00;98181.00;;;12.90
20058;BMP180;10189;49.546;7.906;2024-02-21T13:01:26;98168.00;;;12.90
20058;BMP180;10189;49.546;7.906;2024-02-21T13:03:55;98175.00;;;13.10
20058;BMP180;10189;49.546;7.906;2024-02-21T13:06:23;98172.00;;;12.90
20058;BMP180;10189;49.546;7.906;2024-02-21T13:08:50;98172.00;;;13.00
20058;BMP180;10189;49.546;7.906;2024-02-21T13:11:16;98161.00;;;13.00
20058;BMP180;10189;49.546;7.906;2024-02-21T13:13:42;98165.00;;;13.00
20058;BMP180;10189;49.546;7.906;2024-02-21T13:16:08;98155.00;;;13.10
20058;BMP180;10189;49.546;7.906;2024-02-21T13:18:35;98156.00;;;12.90
20058;BMP180;10189;49.546;7.906;2024-02-21T13:21:07;98156.00;;;13.10
20058;BMP180;10189;49.546;7.906;2024-02-21T13:23:33;98156.00;;;13.00
20058;BMP180;10189;49.546;7.906;2024-02-21T13:25:59;98140.00;;;13.00
20058;BMP180;10189;49.546;7.906;2024-02-21T13:28:25;98128.00;;;13.10
20058;BMP180;10189;49.546;7.906;2024-02-21T13:30:50;98122.00;;;13.10
20058;BMP180;10189;49.546;7.906;2024-02-21T13:33:16;98122.00;;;13.30
20058;BMP180;10189;49.546;7.906;2024-02-21T13:35:42;98096.00;;;13.60
20058;BMP180;10189;49.546;7.906;2024-02-21T13:38:08;98100.00;;;13.30
20058;BMP180;10189;49.546;7.906;2024-02-21T13:40:35;98094.00;;;13.10
20058;BMP180;10189;49.546;7.906;2024-02-21T13:43:01;98094.00;;;13.20
20058;BMP180;10189;49.546;7.906;2024-02-21T13:45:27;98092.00;;;12.90
20058;BMP180;10189;49.546;7.906;2024-02-21T13:47:53;98092.00;;;13.00
20058;BMP180;10189;49.546;7.906;2024-02-21T13:50:23;98090.00;;;13.00
20058;BMP180;10189;49.546;7.906;2024-02-21T13:52:54;98077.00;;;13.10
20058;BMP180;10189;49.546;7.906;2024-02-21T13:55:20;98085.00;;;12.80
20058;BMP180;10189;49.546;7.906;2024-02-21T13:57:47;98063.00;;;13.20
20058;BMP180;10189;49.546;7.906;2024-02-21T14:00:14;98066.00;;;13.20
20058;BMP180;10189;49.546;7.906;2024-02-21T14:02:40;98057.00;;;13.20
20058;BMP180;10189;49.546;7.906;2024-02-21T14:05:06;98040.00;;;13.30
20058;BMP180;10189;49.546;7.906;2024-02-21T14:07:32;98042.00;;;13.30
20058;BMP180;10189;49.546;7.906;2024-02-21T14:10:01;98038.00;;;13.30
20058;BMP180;10189;49.546;7.906;2024-02-21T14:12:27;98025.00;;;13.20
20058;BMP180;10189;49.546;7.906;2024-02-21T14:14:53;98016.00;;;13.40
20058;BMP180;10189;49.546;7.906;2024-02-21T14:17:19;98021.00;;;13.40
20058;BMP180;10189;49.546;7.906;2024-02-21T14:19:45;98025.00;;;13.40